East Kilbride, United Kingdom
Current Conditions -  °F | °C
As of 3:50 AM on Sunday 25 Jan 2015 (Local Time) from EGPF Reporting Station
Light Rain Light Rain  
Wind Chill: 35°   Ceiling: 1900
Heat Index: 43°   Visibility: 5mi
Dew Point: 41°   Wind: 15mph
Humidity: 93%   Direction: 220°SW
Pressure: 30.21"   Gusts: NA
Location:  55.77°N, 4.18°W
Report Text: EGPF 250350Z AUTO 22013KT 8000 -RA OVC019 06/05 Q1023
Loading
Personal Weather Stations






























Interactive Weather Map New forecast layout! Learn more

10-Day Weather Forecast

Advertisements
Track Severe Weather on mobile